Aviation Digital Data Service (ADDS)

Output produced by METARs form (1331 UTC 26 May 2018)
found at http://www.aviationweather.gov/adds/metars/
 
VLLB 261300Z 02002KT 9999 SCT020 SCT060 27/23 Q1007 NOSIG
TAF VLLB 261100Z 2612/2712 20004KT 9999 SCT020 SCT060 
     TEMPO 2612/2615 4000 TS SCT017 FEW020CB BKN070
       
VLPS 261300Z 14004KT 9999 FEW020 BKN050 29/24 Q1009 NOSIG
TAF VLPS 261100Z 2612/2712 20004KT 9999 SCT020 SCT050 
     TEMPO 2612/2615 3000 TSRA SCT017 FEW023CB BKN060
       
VLSK 261300Z 36002KT 4000 RA SCT016 BKN093 24/23 Q1010 NOSIG
TAF VLSK 261100Z 2612/2712 32006KT 8000 SCT020 SCT100 
     TEMPO 2612/2615 3000 TSRA SCT020CB BKN090
       
VLVT 261300Z 18002KT 4000 TS FEW020CB SCT040 25/24 Q1009 CB,NE NOSIG
TAF VLVT 261100Z 2612/2712 22006KT 8000 SCT020 SCT050 
     TEMPO 2612/2615 3000 TSRA SCT010 SCT023CB BKN050
       
VLLB 261300Z 02002KT 9999 SCT020 SCT060 27/23 Q1007 NOSIG
TAF VLLB 261100Z 2612/2712 20004KT 9999 SCT020 SCT060 
     TEMPO 2612/2615 4000 TS SCT017 FEW020CB BKN070
       
VLLN 261200Z 32002KT 7000 FEW050 FEW100 26/26 Q1008 NOSIG
TAF VLLN 261100Z 2612/2712 24004KT 8000 SCT020 SCT100 
     TEMPO 2612/2618 4000 TS SCT020CB BKN090
       
VLPS 261300Z 14004KT 9999 FEW020 BKN050 29/24 Q1009 NOSIG
TAF VLPS 261100Z 2612/2712 20004KT 9999 SCT020 SCT050 
     TEMPO 2612/2615 3000 TSRA SCT017 FEW023CB BKN060
       
VLSK 261300Z 36002KT 4000 RA SCT016 BKN093 24/23 Q1010 NOSIG
TAF VLSK 261100Z 2612/2712 32006KT 8000 SCT020 SCT100 
     TEMPO 2612/2615 3000 TSRA SCT020CB BKN090
       
VLVT 261300Z 18002KT 4000 TS FEW020CB SCT040 25/24 Q1009 CB,NE NOSIG
TAF VLVT 261100Z 2612/2712 22006KT 8000 SCT020 SCT050 
     TEMPO 2612/2615 3000 TSRA SCT010 SCT023CB BKN050